Time;durP1;ratioP1;P1;durP2;ratioP2;P2;SDS_P1;SDS_P2;PMS_P1;PMS_P2;Temp;Humidity;BMP_temperature;BMP_pressure;BME280_temperature;BME280_humidity;BME280_pressure;Samples;Min_cycle;Max_cycle;Signal;HPM_P1;HPM_P2
2022/07/14 00:01:07;;;;;;;2.27;1.50;;;24.70;52.50;;;-142.21;58.36;112049.66;5098613;28;20672;-79
2022/07/14 00:03:36;;;;;;;1.77;1.63;;;24.70;52.40;;;-142.21;58.98;112049.66;5109975;28;20196;-79
2022/07/14 00:06:03;;;;;;;1.73;1.40;;;24.70;52.70;;;-142.21;59.97;112049.66;5111603;28;20700;-79
2022/07/14 00:08:30;;;;;;;1.50;1.40;;;24.60;52.80;;;-142.21;61.23;112049.66;5111191;28;20214;-79
2022/07/14 00:10:58;;;;;;;2.47;1.50;;;24.60;53.10;;;-142.21;62.67;112049.66;5092272;28;20223;-80
2022/07/14 00:13:26;;;;;;;3.67;2.03;;;24.50;53.50;;;-142.21;64.58;112049.66;5111495;28;20281;-80
2022/07/14 00:15:53;;;;;;;1.97;1.50;;;24.40;53.90;;;-142.21;65.80;112049.66;5115061;28;20203;-79
2022/07/14 00:18:20;;;;;;;1.83;1.30;;;24.20;54.20;;;-142.21;66.62;112049.66;5115099;28;20290;-79
2022/07/14 00:20:49;;;;;;;1.73;1.60;;;24.10;54.40;;;-142.21;67.54;112049.66;5114511;28;20195;-80
2022/07/14 00:23:16;;;;;;;2.40;1.40;;;24.00;54.80;;;-142.21;67.99;112049.66;5115032;28;20235;-79
2022/07/14 00:25:44;;;;;;;3.47;2.20;;;24.00;55.10;;;-142.21;68.91;112049.66;5114932;28;20727;-79
2022/07/14 00:28:11;;;;;;;2.87;1.57;;;23.90;55.30;;;-142.21;69.54;112049.66;5114765;28;20299;-78
2022/07/14 00:30:38;;;;;;;3.73;1.80;;;23.80;56.20;;;-142.21;70.12;112049.66;5115066;28;20258;-79
2022/07/14 00:33:05;;;;;;;2.47;1.80;;;23.70;55.70;;;-142.21;70.39;112049.66;5114104;28;20258;-79
2022/07/14 00:35:32;;;;;;;1.47;1.30;;;23.80;55.70;;;-142.21;70.14;112049.66;5095025;28;20591;-80
2022/07/14 00:38:04;;;;;;;1.60;1.50;;;23.90;55.60;;;-142.21;69.60;112049.66;5111739;28;20290;-78
2022/07/14 00:40:31;;;;;;;1.70;1.60;;;23.80;55.40;;;-142.21;69.51;112049.66;5113682;28;20203;-79
2022/07/14 00:42:58;;;;;;;1.80;1.70;;;23.90;55.90;;;-142.21;69.08;112049.66;5114107;28;20563;-79
2022/07/14 00:45:26;;;;;;;2.20;1.43;;;24.00;55.20;;;-142.21;68.38;112049.66;5114900;28;20294;-78
2022/07/14 00:47:53;;;;;;;1.83;1.40;;;24.00;55.10;;;-142.21;67.85;112049.66;5113754;28;20256;-79
2022/07/14 00:50:21;;;;;;;2.27;2.03;;;24.00;54.90;;;-142.21;67.84;112049.66;5114620;28;20219;-79
2022/07/14 00:52:51;;;;;;;2.73;1.80;;;24.10;55.00;;;-142.21;68.59;112049.66;5113667;28;20667;-79
2022/07/14 00:55:19;;;;;;;2.90;1.83;;;24.10;55.10;;;-142.21;68.46;112049.66;5114006;28;20238;-78
2022/07/14 00:57:47;;;;;;;1.77;1.40;;;24.10;55.10;;;-142.21;69.13;112049.66;5114585;28;20285;-79
2022/07/14 01:00:17;;;;;;;2.20;1.40;;;24.10;55.20;;;-142.21;69.30;112049.66;5114341;28;20236;-79
2022/07/14 01:02:46;;;;;;;1.70;1.50;;;24.10;55.30;;;-142.21;70.02;112049.66;5114514;28;20188;-79
2022/07/14 01:05:14;;;;;;;2.00;1.50;;;24.10;55.50;;;-142.21;69.48;112049.66;5113920;28;20648;-78
2022/07/14 01:07:41;;;;;;;2.23;1.53;;;24.10;55.30;;;-142.21;68.88;112049.66;5114794;28;20214;-79
2022/07/14 01:10:10;;;;;;;3.90;1.73;;;24.10;55.30;;;-142.21;68.27;112049.66;5113123;28;20227;-79
2022/07/14 01:12:45;;;;;;;1.60;1.50;;;24.00;55.00;;;-142.21;69.27;112049.66;5113852;28;20245;-79
2022/07/14 01:15:13;;;;;;;1.40;1.27;;;24.00;55.20;;;-142.21;68.11;112049.66;5096055;28;20190;-79
2022/07/14 01:17:41;;;;;;;2.67;1.70;;;24.00;55.00;;;-142.21;67.23;112049.66;5113991;28;20203;-79
2022/07/14 01:20:10;;;;;;;3.23;1.80;;;24.00;54.70;;;-142.21;66.29;112049.66;5113681;28;20309;-79
2022/07/14 01:22:38;;;;;;;1.53;1.33;;;24.00;54.50;;;-142.21;67.49;112049.66;5096133;28;20209;-79
2022/07/14 01:25:07;;;;;;;3.20;1.70;;;24.00;55.40;;;-142.21;66.82;112049.66;5111367;28;20209;-79
2022/07/14 01:27:35;;;;;;;3.50;1.30;;;24.00;54.40;;;-142.21;66.24;112049.66;5113964;28;20227;-79
2022/07/14 01:30:02;;;;;;;1.37;1.20;;;24.00;54.20;;;-142.21;65.79;112049.66;5113418;28;20203;-79
2022/07/14 01:32:29;;;;;;;3.53;1.70;;;24.00;54.10;;;-142.21;64.65;112049.66;5113505;28;20227;-79
2022/07/14 01:34:57;;;;;;;2.20;1.40;;;23.90;53.70;;;-142.21;64.79;112049.66;5113281;28;20536;-79
2022/07/14 01:37:24;;;;;;;1.70;1.50;;;23.90;53.70;;;-142.21;64.90;112049.66;5113163;28;20288;-80
2022/07/14 01:39:52;;;;;;;2.07;1.40;;;23.90;53.70;;;-142.21;65.99;112049.66;5112852;28;20246;-80
2022/07/14 01:42:19;;;;;;;3.17;1.43;;;23.90;54.10;;;-142.21;66.91;112049.66;5113445;28;20202;-80
2022/07/14 01:44:47;;;;;;;1.83;1.57;;;23.80;54.30;;;-142.21;68.38;112049.66;5113709;28;20202;-79
2022/07/14 01:47:14;;;;;;;1.50;1.40;;;23.70;54.60;;;-142.21;69.17;112049.66;5112895;28;20238;-80
2022/07/14 01:49:42;;;;;;;2.00;1.70;;;23.70;54.90;;;-142.21;69.88;112049.66;5095651;28;20260;-80
2022/07/14 01:52:09;;;;;;;1.53;1.43;;;23.70;55.20;;;-142.21;69.83;112049.66;5112681;28;20195;-79
2022/07/14 01:54:36;;;;;;;1.80;1.63;;;23.60;55.20;;;-142.21;70.28;112049.66;5113200;28;20223;-79
2022/07/14 01:57:06;;;;;;;1.83;1.63;;;23.60;55.30;;;-142.21;70.92;112049.66;5112499;28;20290;-79
2022/07/14 01:59:33;;;;;;;2.60;1.50;;;23.50;55.30;;;-142.21;71.71;112049.66;5112781;28;20212;-79
2022/07/14 02:02:00;;;;;;;3.03;1.73;;;23.50;55.50;;;-142.21;72.26;112049.66;5111943;28;20287;-79
2022/07/14 02:04:28;;;;;;;3.27;1.70;;;23.50;56.40;;;-142.21;72.05;112049.66;5113261;28;20220;-79
2022/07/14 02:06:57;;;;;;;3.53;1.40;;;23.40;56.10;;;-142.21;73.09;112049.66;5112741;28;20529;-80
2022/07/14 02:12:10;;;;;;;2.70;1.40;;;23.30;56.60;;;-142.21;73.69;112049.66;5112446;28;20235;-80
2022/07/14 02:12:13;;;;;;;1.70;1.60;;;23.20;57.20;;;-142.21;74.47;112049.66;5111635;28;20198;-78
2022/07/14 02:14:41;;;;;;;2.20;1.60;;;23.00;56.80;;;-142.21;75.57;112049.66;5112717;28;20215;-78
2022/07/14 02:17:09;;;;;;;2.60;1.80;;;22.80;57.20;;;-142.21;75.88;112049.66;5112485;28;20203;-76
2022/07/14 02:19:37;;;;;;;1.83;1.70;;;22.70;57.30;;;-142.21;75.63;112049.66;5095060;28;20653;-80
2022/07/14 02:22:05;;;;;;;3.47;1.63;;;22.60;57.40;;;-142.21;76.22;112049.66;5111699;28;20227;-79
2022/07/14 02:24:32;;;;;;;2.73;1.77;;;22.60;57.30;;;-142.21;75.58;112049.66;5112599;28;20223;-78
2022/07/14 02:27:01;;;;;;;7.17;1.90;;;22.70;57.80;;;-142.21;75.06;112049.66;5111927;28;20199;-80
2022/07/14 02:29:29;;;;;;;3.10;1.60;;;22.70;57.10;;;-142.21;74.34;112049.66;5112974;28;20294;-80
2022/07/14 02:31:56;;;;;;;1.93;1.50;;;22.70;57.00;;;-142.21;73.80;112049.66;5112677;28;20228;-80
2022/07/14 02:34:23;;;;;;;1.50;1.40;;;22.70;56.90;;;-142.21;74.21;112049.66;5112577;28;20211;-80
2022/07/14 02:36:50;;;;;;;1.33;1.30;;;22.70;56.90;;;-142.21;74.03;112049.66;5111871;28;20207;-80
2022/07/14 02:39:18;;;;;;;1.70;1.53;;;22.60;56.80;;;-142.21;74.80;112049.66;5112113;28;20552;-79
2022/07/14 02:41:45;;;;;;;2.70;1.67;;;22.60;56.90;;;-142.21;75.67;112049.66;5112213;28;20674;-79
2022/07/14 02:44:14;;;;;;;6.07;1.57;;;22.60;57.10;;;-142.21;76.20;112049.66;5111568;28;20287;-79
2022/07/14 02:46:43;;;;;;;1.93;1.40;;;22.60;57.30;;;-142.21;76.59;112049.66;5097205;28;20196;-78
2022/07/14 02:49:10;;;;;;;1.63;1.50;;;22.60;57.50;;;-142.21;76.58;112049.66;5111742;28;20223;-78
2022/07/14 02:51:41;;;;;;;1.50;1.40;;;22.60;57.40;;;-142.21;76.66;112049.66;5111213;28;20294;-79
2022/07/14 02:54:08;;;;;;;1.70;1.53;;;22.60;57.50;;;-142.21;76.42;112049.66;5111620;28;20568;-80
2022/07/14 02:56:36;;;;;;;1.60;1.50;;;22.50;57.30;;;-142.21;76.91;112049.66;5112395;28;20195;-78
2022/07/14 02:59:06;;;;;;;1.90;1.27;;;22.60;57.50;;;-142.21;77.33;112049.66;5111571;28;20235;-78
2022/07/14 03:01:34;;;;;;;1.70;1.30;;;22.50;57.70;;;-142.21;77.19;112049.66;5112247;28;20216;-80
2022/07/14 03:04:02;;;;;;;1.20;1.10;;;22.50;58.20;;;-142.21;77.06;112049.66;5111716;28;20206;-80
2022/07/14 03:06:30;;;;;;;1.63;1.53;;;22.50;57.60;;;-142.21;78.21;112049.66;5112344;28;20307;-80
2022/07/14 03:08:57;;;;;;;1.90;1.70;;;22.50;57.90;;;-142.21;78.81;112049.66;5111341;28;20290;-79
2022/07/14 03:11:24;;;;;;;1.57;1.33;;;22.50;57.90;;;-142.21;79.01;112049.66;5112281;28;20191;-78
2022/07/14 03:13:51;;;;;;;2.50;2.17;;;22.50;58.10;;;-142.21;78.53;112049.66;5112496;28;20713;-79
2022/07/14 03:16:18;;;;;;;2.03;1.87;;;22.40;58.00;;;-142.21;79.09;112049.66;5111821;28;20234;-78
2022/07/14 03:18:45;;;;;;;2.47;1.47;;;22.20;58.40;;;-142.21;79.55;112049.66;5111851;28;20202;-78
2022/07/14 03:21:14;;;;;;;1.63;1.53;;;22.10;58.50;;;-142.21;80.16;112049.66;5111543;28;20204;-80
2022/07/14 03:23:41;;;;;;;5.17;1.77;;;22.10;58.80;;;-142.21;80.02;112049.66;5111460;28;20276;-80
2022/07/14 03:26:09;;;;;;;2.67;1.70;;;22.10;58.80;;;-142.21;80.50;112049.66;5110939;28;20286;-79
2022/07/14 03:28:37;;;;;;;1.90;1.70;;;22.00;59.10;;;-142.21;81.04;112049.66;5112142;28;20223;-79
2022/07/14 03:31:04;;;;;;;2.77;1.53;;;21.90;59.10;;;-142.21;81.39;112049.66;5111861;28;20207;-80
2022/07/14 03:33:31;;;;;;;1.70;1.53;;;21.90;59.20;;;-142.21;81.76;112049.66;5093350;28;20318;-79
2022/07/14 03:35:58;;;;;;;1.77;1.63;;;21.90;59.40;;;-142.21;82.11;112049.66;5110950;28;20223;-79
2022/07/14 03:38:27;;;;;;;3.07;1.90;;;21.90;59.30;;;-142.21;81.97;112049.66;5111960;28;20274;-79
2022/07/14 03:40:54;;;;;;;1.83;1.70;;;21.90;59.30;;;-142.21;81.83;112049.66;5111832;28;20195;-80
2022/07/14 03:43:21;;;;;;;1.23;1.13;;;21.90;59.30;;;-142.21;82.13;112049.66;5111673;28;20224;-77
2022/07/14 03:45:49;;;;;;;1.73;1.53;;;21.90;59.30;;;-142.21;82.62;112049.66;5111703;28;20664;-77
2022/07/14 03:48:16;;;;;;;1.87;1.50;;;21.90;59.60;;;-142.21;82.38;112049.66;5111194;28;20196;-80
2022/07/14 03:50:43;;;;;;;2.17;1.93;;;21.90;59.60;;;-142.21;81.48;112049.66;5115870;28;20631;-79
2022/07/14 03:53:10;;;;;;;1.50;1.40;;;21.90;59.30;;;-142.21;81.07;112049.66;5114627;28;20223;-79
2022/07/14 03:55:39;;;;;;;1.87;1.70;;;21.90;59.10;;;-142.21;81.74;112049.66;5115806;28;20235;-81
2022/07/14 03:58:06;;;;;;;3.50;2.07;;;21.90;59.40;;;-142.21;82.26;112049.66;5115104;28;20243;-76
2022/07/14 04:00:34;;;;;;;2.07;1.70;;;21.80;60.00;;;-142.21;82.13;112049.66;5115376;28;20283;-81
2022/07/14 04:03:01;;;;;;;1.60;1.50;;;21.80;59.40;;;-142.21;81.86;112049.66;5115131;28;20192;-81
2022/07/14 04:05:28;;;;;;;1.93;1.60;;;21.80;59.30;;;-142.21;82.59;112049.66;5117517;28;20620;-83
2022/07/14 04:07:56;;;;;;;3.03;1.97;;;21.80;59.60;;;-142.21;83.73;112049.66;5117268;28;20221;-81
2022/07/14 04:10:23;;;;;;;2.90;1.60;;;21.80;59.80;;;-142.21;83.33;112049.66;5115919;28;20310;-81
2022/07/14 04:12:52;;;;;;;2.07;1.87;;;21.80;60.00;;;-142.21;83.36;112049.66;5116085;28;20280;-81
2022/07/14 04:15:19;;;;;;;1.63;1.50;;;21.80;59.80;;;-142.21;83.20;112049.66;5097922;28;20239;-81
2022/07/14 04:17:47;;;;;;;2.73;2.03;;;21.80;59.80;;;-142.21;83.07;112049.66;5115958;28;20256;-81
2022/07/14 04:20:14;;;;;;;2.00;1.47;;;21.90;59.80;;;-142.21;83.18;112049.66;5115082;28;20223;-79
2022/07/14 04:22:41;;;;;;;4.37;1.87;;;21.80;59.80;;;-142.21;83.34;112049.66;5115548;28;20266;-78
2022/07/14 04:25:12;;;;;;;2.30;1.90;;;21.80;59.90;;;-142.21;82.23;112049.66;5114252;28;20713;-80
2022/07/14 04:27:39;;;;;;;2.90;1.80;;;21.80;59.80;;;-142.21;82.47;112049.66;5116076;28;20562;-82
2022/07/14 04:30:11;;;;;;;1.53;1.43;;;21.70;59.60;;;-142.21;82.64;112049.66;5116855;28;20202;-81
2022/07/14 04:32:38;;;;;;;3.63;2.00;;;21.70;59.70;;;-142.21;82.80;112049.66;5116617;28;20227;-82
2022/07/14 04:35:07;;;;;;;3.23;2.17;;;21.70;59.70;;;-142.21;83.76;112049.66;5116100;28;20307;-82
2022/07/14 04:37:34;;;;;;;3.73;2.03;;;21.80;60.00;;;-142.21;83.72;112049.66;5116600;28;20337;-82
2022/07/14 04:40:02;;;;;;;3.57;1.90;;;21.80;60.00;;;-142.21;84.27;112049.66;5116676;28;20196;-81
2022/07/14 04:42:30;;;;;;;5.67;2.07;;;21.80;60.40;;;-142.21;85.14;112049.66;5116239;28;20272;-80
2022/07/14 04:44:57;;;;;;;6.10;2.60;;;21.80;60.70;;;-142.21;84.06;112049.66;5116125;28;20708;-80
2022/07/14 04:47:26;;;;;;;1.83;1.50;;;21.80;60.10;;;-142.21;82.89;112049.66;5115607;28;20196;-80
2022/07/14 04:52:47;;;;;;;4.37;1.90;;;21.80;59.60;;;-142.21;81.77;112049.66;5115394;28;20195;-79
2022/07/14 04:55:14;;;;;;;2.97;1.83;;;21.70;60.00;;;-142.21;83.02;112049.66;5114457;28;20214;-79
2022/07/14 04:57:42;;;;;;;2.93;1.70;;;21.60;61.20;;;-142.21;83.61;112049.66;5114559;28;20195;-79
2022/07/14 05:00:12;;;;;;;1.80;1.70;;;21.50;60.80;;;-142.21;84.26;112049.66;5112960;28;20743;-79
2022/07/14 05:02:41;;;;;;;2.67;1.70;;;21.40;61.20;;;-142.21;84.32;112049.66;5113948;28;20276;-78
2022/07/14 05:05:09;;;;;;;1.43;1.33;;;21.50;61.40;;;-142.21;84.39;112049.66;5113841;28;20657;-77
2022/07/14 05:07:37;;;;;;;1.63;1.53;;;21.60;61.20;;;-142.21;83.49;112049.66;5114276;28;20304;-79
2022/07/14 05:10:06;;;;;;;3.37;1.90;;;21.80;60.70;;;-142.21;82.63;112049.66;5113829;28;20322;-79
2022/07/14 05:12:34;;;;;;;2.27;2.03;;;21.90;60.60;;;-142.21;82.85;112049.66;5114655;28;20389;-77
2022/07/14 05:15:01;;;;;;;4.87;2.23;;;22.00;60.60;;;-142.21;82.92;112049.66;5113504;28;20229;-77
2022/07/14 05:17:29;;;;;;;2.50;1.67;;;22.10;60.70;;;-142.21;82.56;112049.66;5094099;28;20609;-79
2022/07/14 05:19:57;;;;;;;3.13;1.67;;;22.20;60.60;;;-142.21;82.56;112049.66;5103826;28;20200;-79
2022/07/14 05:22:24;;;;;;;1.40;1.30;;;22.30;60.70;;;-142.21;81.06;112049.66;5113481;28;20221;-80
2022/07/14 05:24:52;;;;;;;4.93;1.70;;;22.40;60.00;;;-142.21;79.70;112049.66;5113731;28;20644;-76
2022/07/14 05:27:19;;;;;;;2.17;1.40;;;22.50;59.50;;;-142.21;78.37;112049.66;5113550;28;20296;-78
2022/07/14 05:29:47;;;;;;;3.07;1.60;;;22.60;59.30;;;-142.21;76.55;112049.66;5095806;28;20200;-78
2022/07/14 05:32:14;;;;;;;2.67;1.60;;;22.70;58.60;;;-142.21;75.89;112049.66;5113451;28;20564;-78
2022/07/14 05:34:45;;;;;;;1.60;1.50;;;22.80;58.40;;;-142.21;75.56;112049.66;5113579;28;20309;-79
2022/07/14 05:37:14;;;;;;;1.60;1.50;;;22.90;58.40;;;-142.21;75.45;112049.66;5113199;28;20294;-78
2022/07/14 05:39:41;;;;;;;1.80;1.70;;;23.00;58.40;;;-142.21;75.54;112049.66;5113495;28;20206;-76
2022/07/14 05:42:10;;;;;;;3.57;1.40;;;23.10;58.10;;;-142.21;73.82;112049.66;5113446;28;20249;-77
2022/07/14 05:44:37;;;;;;;2.27;2.00;;;23.30;57.60;;;-142.21;70.67;112049.66;5113290;28;20187;-79
2022/07/14 05:47:04;;;;;;;2.13;1.50;;;23.50;56.60;;;-142.21;68.90;112049.66;5113259;28;20219;-76
2022/07/14 05:49:31;;;;;;;1.97;1.30;;;23.60;56.30;;;-142.21;67.42;112049.66;5112911;28;20311;-77
2022/07/14 05:52:01;;;;;;;3.43;1.60;;;23.70;55.60;;;-142.21;65.65;112049.66;5113350;28;20210;-77
2022/07/14 05:54:30;;;;;;;1.53;1.33;;;23.80;55.10;;;-142.21;65.74;112049.66;5113298;28;20217;-77
2022/07/14 05:56:57;;;;;;;5.60;1.60;;;23.90;54.80;;;-142.21;64.86;112049.66;5113687;28;20549;-76
2022/07/14 05:59:24;;;;;;;1.47;1.37;;;24.00;54.70;;;-142.21;64.05;112049.66;5112217;28;20208;-76
2022/07/14 06:01:52;;;;;;;1.97;1.50;;;24.10;54.40;;;-142.21;64.45;112049.66;5112615;28;20234;-76
2022/07/14 06:04:19;;;;;;;6.23;1.90;;;24.10;54.40;;;-142.21;66.78;112049.66;5112331;28;20271;-75
2022/07/14 06:06:46;;;;;;;2.33;1.60;;;24.10;55.10;;;-142.21;65.75;112049.66;5094976;28;20286;-75
2022/07/14 06:09:15;;;;;;;2.20;1.60;;;24.10;54.90;;;-142.21;65.85;112049.66;5112222;28;20235;-78
2022/07/14 06:11:43;;;;;;;1.90;1.80;;;24.20;54.90;;;-142.21;64.50;112049.66;5112884;28;20187;-75
2022/07/14 06:14:11;;;;;;;2.10;1.60;;;24.30;54.50;;;-142.21;63.37;112049.66;5111997;28;20318;-75
2022/07/14 06:16:39;;;;;;;1.67;1.57;;;24.40;54.20;;;-142.21;62.47;112049.66;5112858;28;20290;-76
2022/07/14 06:19:06;;;;;;;1.70;1.60;;;24.60;54.00;;;-142.21;59.55;112049.66;5112002;28;20200;-76
2022/07/14 06:21:34;;;;;;;3.00;1.70;;;24.70;53.20;;;-142.21;59.32;112049.66;5095059;28;20290;-76
2022/07/14 06:24:01;;;;;;;2.07;1.87;;;24.80;53.00;;;-142.21;59.05;112049.66;5095142;28;20290;-77
2022/07/14 06:26:29;;;;;;;5.43;1.73;;;24.90;52.90;;;-142.21;56.20;112049.66;5112285;28;20294;-77
2022/07/14 06:28:57;;;;;;;2.20;1.87;;;24.90;52.30;;;-142.21;55.57;112049.66;5112854;28;20307;-76
2022/07/14 06:31:24;;;;;;;2.13;1.80;;;24.90;51.90;;;-142.21;55.57;112049.66;5111832;28;20214;-76
2022/07/14 06:33:51;;;;;;;4.30;1.63;;;25.00;51.80;;;-142.21;53.69;112049.66;5112372;28;20422;-75
2022/07/14 06:36:19;;;;;;;2.30;1.50;;;25.10;51.20;;;-142.21;52.43;112049.66;5112047;28;20679;-74
2022/07/14 06:38:46;;;;;;;3.70;1.83;;;25.20;50.70;;;-142.21;50.72;112049.66;5112949;28;20206;-77
2022/07/14 06:41:13;;;;;;;1.70;1.60;;;25.30;50.80;;;-142.21;50.40;112049.66;5112007;28;20203;-75
2022/07/14 06:43:40;;;;;;;4.83;1.80;;;25.30;50.00;;;-142.21;50.03;112049.66;5112273;28;20290;-78
2022/07/14 06:46:14;;;;;;;10.23;1.83;;;25.40;50.50;;;-142.21;49.90;112049.66;5112267;28;20207;-76
2022/07/14 06:48:41;;;;;;;1.40;1.30;;;25.50;49.80;;;-142.21;49.82;112049.66;5112604;28;20223;-75
2022/07/14 06:51:09;;;;;;;4.30;2.03;;;25.60;49.70;;;-142.21;49.70;112049.66;5111836;28;20317;-75
2022/07/14 06:53:37;;;;;;;1.80;1.53;;;25.80;49.70;;;-142.21;49.54;112049.66;5113052;28;20496;-76
2022/07/14 06:56:04;;;;;;;4.63;2.07;;;26.00;50.10;;;-142.21;47.24;112049.66;5111884;28;20223;-76
2022/07/14 06:58:32;;;;;;;4.53;1.70;;;26.10;48.90;;;-142.21;47.10;112049.66;5112293;28;20235;-75
2022/07/14 07:01:00;;;;;;;1.77;1.50;;;26.30;48.50;;;-142.21;45.09;112049.66;5112632;28;20243;-76
2022/07/14 07:03:28;;;;;;;2.20;1.80;;;26.50;47.90;;;-142.21;44.21;112049.66;5111599;28;20211;-75
2022/07/14 07:08:41;;;;;;;1.53;1.43;;;26.80;46.90;;;-142.21;42.39;112049.66;5112270;28;20256;-75
2022/07/14 07:11:09;;;;;;;2.63;1.50;;;26.90;46.50;;;-142.21;42.32;112049.66;5111291;28;20723;-76
2022/07/14 07:13:37;;;;;;;3.90;1.50;;;27.00;47.10;;;-142.21;42.21;112049.66;5112452;28;20258;-76
2022/07/14 07:16:05;;;;;;;1.80;1.70;;;27.10;46.30;;;-142.21;41.26;112049.66;5112379;28;20223;-73
2022/07/14 07:18:34;;;;;;;3.20;2.00;;;27.20;45.60;;;-142.21;40.87;112049.66;5111575;28;20204;-75
2022/07/14 07:21:02;;;;;;;2.37;1.73;;;27.30;45.20;;;-142.21;41.13;112049.66;5111003;28;20248;-75
2022/07/14 07:23:30;;;;;;;3.10;1.73;;;27.40;45.70;;;-142.21;41.18;112049.66;5114221;28;20295;-75
2022/07/14 07:25:57;;;;;;;2.87;1.83;;;27.50;45.40;;;-142.21;41.28;112049.66;5098492;28;20532;-75
2022/07/14 07:28:25;;;;;;;1.87;1.77;;;27.60;45.70;;;-142.21;41.14;112049.66;5115985;28;20626;-75
2022/07/14 07:30:55;;;;;;;2.97;1.80;;;27.80;45.60;;;-142.21;40.01;112049.66;5116011;28;20292;-75
2022/07/14 07:33:22;;;;;;;3.10;1.90;;;27.80;44.70;;;-142.21;39.89;112049.66;5115742;28;20214;-75
2022/07/14 07:35:50;;;;;;;2.80;1.70;;;27.80;44.80;;;-142.21;39.37;112049.66;5116493;28;20251;-76
2022/07/14 07:38:18;;;;;;;2.70;1.93;;;28.00;44.40;;;-142.21;38.58;112049.66;5115561;28;20666;-76
2022/07/14 07:40:48;;;;;;;3.17;1.70;;;28.00;43.60;;;-142.21;38.49;112049.66;5116117;28;20290;-76
2022/07/14 07:43:15;;;;;;;2.67;2.07;;;28.10;43.70;;;-142.21;38.44;112049.66;5115240;28;20294;-76
2022/07/14 07:45:42;;;;;;;2.37;1.87;;;28.20;43.30;;;-142.21;39.23;112049.66;5115813;28;20214;-75
2022/07/14 07:48:09;;;;;;;3.27;1.87;;;28.20;43.80;;;-142.21;38.57;112049.66;5116301;28;20295;-76
2022/07/14 07:50:37;;;;;;;5.30;1.73;;;28.30;43.40;;;-142.21;37.90;112049.66;5116146;28;20654;-76
2022/07/14 07:53:07;;;;;;;2.77;2.00;;;28.40;42.90;;;-142.21;37.46;112049.66;5116138;28;20295;-76
2022/07/14 07:55:34;;;;;;;1.73;1.40;;;28.50;42.30;;;-142.21;37.58;112049.66;5114895;28;20300;-75
2022/07/14 07:58:02;;;;;;;1.97;1.70;;;28.50;42.60;;;-142.21;38.30;112049.66;5115920;28;20199;-75
2022/07/14 08:00:30;;;;;;;3.23;1.83;;;28.70;43.00;;;-142.21;37.65;112049.66;5115311;28;20205;-76
2022/07/14 08:03:00;;;;;;;1.70;1.60;;;28.90;42.60;;;-142.21;37.43;112049.66;5115675;28;20731;-76
2022/07/14 08:05:31;;;;;;;2.40;1.80;;;28.90;42.10;;;-142.21;38.09;112049.66;5114660;28;20707;-75
2022/07/14 08:07:58;;;;;;;2.93;1.63;;;29.00;42.50;;;-142.21;37.89;112049.66;5115898;28;20626;-75
2022/07/14 08:10:29;;;;;;;2.57;1.87;;;29.20;42.30;;;-142.21;37.71;112049.66;5114472;28;20278;-76
2022/07/14 08:12:57;;;;;;;2.30;1.77;;;29.30;42.10;;;-142.21;37.27;112049.66;5115460;28;20642;-76
2022/07/14 08:15:24;;;;;;;3.47;1.53;;;29.40;42.00;;;-142.21;36.27;112049.66;5114338;28;20226;-75
2022/07/14 08:17:52;;;;;;;2.07;1.90;;;29.60;41.50;;;-142.21;36.83;112049.66;5115779;28;20235;-76
2022/07/14 08:20:19;;;;;;;6.37;1.70;;;29.70;41.50;;;-142.21;36.22;112049.66;5115024;28;20199;-76
2022/07/14 08:22:46;;;;;;;2.50;1.50;;;29.80;41.10;;;-142.21;35.59;112049.66;5115580;28;20210;-75
2022/07/14 08:25:14;;;;;;;1.97;1.70;;;29.80;40.50;;;-142.21;34.98;112049.66;5114500;28;20285;-75
2022/07/14 08:27:42;;;;;;;3.03;1.93;;;29.90;40.10;;;-142.21;35.39;112049.66;5115341;28;20210;-76
2022/07/14 08:30:10;;;;;;;2.90;1.90;;;29.90;40.40;;;-142.21;35.34;112049.66;5115284;28;20606;-76
2022/07/14 08:32:39;;;;;;;1.90;1.70;;;30.00;40.40;;;-142.21;34.78;112049.66;5115151;28;20298;-76
2022/07/14 08:35:09;;;;;;;2.33;1.70;;;30.10;40.00;;;-142.21;34.43;112049.66;5096297;28;20231;-75
2022/07/14 08:37:38;;;;;;;3.37;1.60;;;30.20;39.40;;;-142.21;34.37;112049.66;5114274;28;20263;-76
2022/07/14 08:40:09;;;;;;;2.73;1.70;;;30.30;39.30;;;-142.21;34.86;112049.66;5115165;28;20570;-76
2022/07/14 08:42:40;;;;;;;3.10;1.60;;;30.40;40.00;;;-142.21;34.24;112049.66;5114383;28;20274;-75
2022/07/14 08:45:12;;;;;;;3.07;1.70;;;30.50;39.40;;;-142.21;34.28;112049.66;5114772;28;20191;-76
2022/07/14 08:47:40;;;;;;;2.30;1.50;;;30.70;39.10;;;-142.21;34.16;112049.66;5114919;28;20274;-75
2022/07/14 08:50:11;;;;;;;2.97;1.80;;;30.80;39.10;;;-142.21;34.19;112049.66;5114779;28;20216;-76
2022/07/14 08:52:38;;;;;;;2.87;1.73;;;30.90;39.00;;;-142.21;33.73;112049.66;5114144;28;20206;-75
2022/07/14 08:55:08;;;;;;;4.03;1.83;;;31.10;38.80;;;-142.21;32.92;112049.66;5114683;28;20589;-75
2022/07/14 08:57:36;;;;;;;2.10;1.80;;;31.20;38.00;;;-142.21;32.49;112049.66;5113919;28;20222;-75
2022/07/14 09:00:10;;;;;;;4.90;1.70;;;31.30;37.20;;;-142.21;31.82;112049.66;5114735;28;20207;-76
2022/07/14 09:02:39;;;;;;;4.27;1.87;;;31.30;36.80;;;-142.21;31.77;112049.66;5113698;28;20667;-75
2022/07/14 09:05:08;;;;;;;2.73;1.57;;;31.50;37.40;;;-142.21;31.21;112049.66;5114450;28;20294;-76
2022/07/14 09:07:38;;;;;;;1.87;1.70;;;31.70;36.30;;;-142.21;30.38;112049.66;5095479;28;20683;-75
2022/07/14 09:10:09;;;;;;;2.93;1.90;;;31.80;35.20;;;-142.21;29.70;112049.66;5114217;28;20308;-75
2022/07/14 09:12:38;;;;;;;2.37;1.70;;;31.90;34.40;;;-142.21;29.59;112049.66;5095880;28;20191;-76
2022/07/14 09:17:58;;;;;;;3.93;1.70;;;32.00;35.30;;;-142.21;30.12;112049.66;5114237;28;20269;-75
2022/07/14 09:20:28;;;;;;;1.73;1.63;;;32.10;35.00;;;-142.21;29.16;112049.66;5113856;28;20271;-76
2022/07/14 09:22:57;;;;;;;6.03;1.97;;;32.20;34.10;;;-142.21;29.23;112049.66;5113804;28;20664;-75
2022/07/14 09:25:28;;;;;;;2.97;1.80;;;32.30;33.70;;;-142.21;29.11;112049.66;5113528;28;20200;-76
2022/07/14 09:27:56;;;;;;;1.77;1.63;;;32.30;33.70;;;-142.21;29.46;112049.66;5114060;28;20612;-75
2022/07/14 09:30:26;;;;;;;2.73;1.70;;;32.50;34.10;;;-142.21;29.30;112049.66;5113301;28;20764;-73
2022/07/14 09:32:57;;;;;;;1.93;1.60;;;32.60;33.70;;;-142.21;29.55;112049.66;5114168;28;20287;-74
2022/07/14 09:35:27;;;;;;;1.90;1.50;;;32.70;34.10;;;-142.21;29.61;112049.66;5113412;28;20223;-74
2022/07/14 09:37:56;;;;;;;3.30;1.57;;;32.70;33.80;;;-142.21;29.67;112049.66;5113768;28;20234;-75
2022/07/14 09:40:30;;;;;;;1.97;1.63;;;32.80;34.10;;;-142.21;29.90;112049.66;5113211;28;20204;-74
2022/07/14 09:42:59;;;;;;;2.23;1.53;;;32.90;34.00;;;-142.21;30.30;112049.66;5113946;28;20651;-75
2022/07/14 09:45:29;;;;;;;5.93;2.10;;;33.00;34.70;;;-142.21;30.84;112049.66;5113204;28;20208;-75
2022/07/14 09:48:02;;;;;;;4.50;1.70;;;33.10;35.20;;;-142.21;30.99;112049.66;5112930;28;20637;-75
2022/07/14 09:50:45;;;;;;;2.73;1.70;;;32.90;34.90;;;-142.21;29.41;112049.66;5112727;28;20316;-76
2022/07/14 09:53:25;;;;;;;2.90;1.97;;;33.00;33.60;;;-142.21;29.80;112049.66;5113280;28;20768;-75
2022/07/14 09:56:03;;;;;;;2.50;1.77;;;33.00;34.30;;;-142.21;28.63;112049.66;5113616;28;20213;-75
2022/07/14 09:58:33;;;;;;;1.90;1.60;;;33.00;32.50;;;-142.21;27.32;112049.66;5112558;28;20188;-74
2022/07/14 10:01:03;;;;;;;4.07;1.60;;;33.00;31.30;;;-142.21;27.09;112049.66;5113555;28;20224;-74
2022/07/14 10:03:35;;;;;;;2.80;1.33;;;33.00;30.90;;;-142.21;27.38;112049.66;5113063;28;20199;-75
2022/07/14 10:06:05;;;;;;;2.20;1.40;;;32.90;31.20;;;-142.21;27.71;112049.66;5113495;28;20204;-75
2022/07/14 10:08:35;;;;;;;3.63;1.63;;;33.00;31.40;;;-142.21;27.71;112049.66;5113419;28;20654;-76
2022/07/14 10:11:04;;;;;;;4.07;1.60;;;33.20;31.40;;;-142.21;28.30;112049.66;5112591;28;20244;-74
2022/07/14 10:13:32;;;;;;;3.43;1.63;;;33.30;32.40;;;-142.21;27.37;112049.66;5112294;28;20209;-76